Time;durP1;ratioP1;P1;durP2;ratioP2;P2;SDS_P1;SDS_P2;PMS_P1;PMS_P2;Temp;Humidity;BMP_temperature;BMP_pressure;BME280_temperature;BME280_humidity;BME280_pressure;Samples;Min_cycle;Max_cycle;Signal;HPM_P1;HPM_P2
2023/04/28 00:00:43;;;;;;;;;;;14.90;47.00;;;;;;5047124;28;19921;-66
2023/04/28 00:03:09;;;;;;;;;;;14.90;47.00;;;;;;5066410;28;19963;-67
2023/04/28 00:05:35;;;;;;;;;;;14.90;47.00;;;;;;5047850;28;20372;-67
2023/04/28 00:08:02;;;;;;;;;;;14.90;47.00;;;;;;5064668;28;19924;-67
2023/04/28 00:10:27;;;;;;;;;;;14.90;47.00;;;;;;5046902;28;19943;-67
2023/04/28 00:12:53;;;;;;;;;;;14.90;47.00;;;;;;5047002;28;19924;-67
2023/04/28 00:15:18;;;;;;;;;;;14.90;47.10;;;;;;5048505;28;19920;-67
2023/04/28 00:17:44;;;;;;;;;;;14.90;47.10;;;;;;5046892;28;19927;-67
2023/04/28 00:20:10;;;;;;;;;;;14.90;47.10;;;;;;5047636;28;19928;-67
2023/04/28 00:22:35;;;;;;;;;;;14.90;47.10;;;;;;5044209;28;19920;-67
2023/04/28 00:25:01;;;;;;;;;;;14.90;47.20;;;;;;5063607;28;20434;-66
2023/04/28 00:27:26;;;;;;;;;;;14.80;47.10;;;;;;5046622;28;19924;-66
2023/04/28 00:29:52;;;;;;;;;;;14.90;47.20;;;;;;5065240;28;19920;-67
2023/04/28 00:32:18;;;;;;;;;;;14.80;47.10;;;;;;5062689;28;19921;-67
2023/04/28 00:34:43;;;;;;;;;;;14.80;47.10;;;;;;5065717;28;19926;-66
2023/04/28 00:37:09;;;;;;;;;;;14.80;47.10;;;;;;5050483;28;19920;-67
2023/04/28 00:39:34;;;;;;;;;;;14.80;47.10;;;;;;5049363;28;19952;-67
2023/04/28 00:42:01;;;;;;;;;;;14.80;47.10;;;;;;5050764;28;19927;-66
2023/04/28 00:44:26;;;;;;;;;;;14.80;47.20;;;;;;5050728;28;20182;-67
2023/04/28 00:46:52;;;;;;;;;;;14.80;47.20;;;;;;5050150;28;20371;-66
2023/04/28 00:49:17;;;;;;;;;;;14.80;47.20;;;;;;5052178;28;19920;-66
2023/04/28 00:51:43;;;;;;;;;;;14.70;47.10;;;;;;5048950;28;19927;-66
2023/04/28 00:54:12;;;;;;;;;;;14.80;47.20;;;;;;5050520;28;19920;-66
2023/04/28 00:56:37;;;;;;;;;;;14.80;47.20;;;;;;5068161;28;19920;-67
2023/04/28 00:59:03;;;;;;;;;;;14.70;47.20;;;;;;5067591;28;19925;-67
2023/04/28 01:01:28;;;;;;;;;;;14.70;47.20;;;;;;5068398;28;19927;-66
2023/04/28 01:03:54;;;;;;;;;;;14.80;47.30;;;;;;5050049;28;19920;-67
2023/04/28 01:06:19;;;;;;;;;;;14.70;47.20;;;;;;5051793;28;19927;-67
2023/04/28 01:08:47;;;;;;;;;;;14.80;47.30;;;;;;5067604;28;19928;-67
2023/04/28 01:11:13;;;;;;;;;;;14.70;47.20;;;;;;5069488;28;19920;-67
2023/04/28 01:13:39;;;;;;;;;;;14.70;47.20;;;;;;5051399;28;19994;-67
2023/04/28 01:16:06;;;;;;;;;;;14.70;47.30;;;;;;5050627;28;20412;-66
2023/04/28 01:18:32;;;;;;;;;;;14.70;47.30;;;;;;5067140;28;20008;-66
2023/04/28 01:20:57;;;;;;;;;;;14.70;47.30;;;;;;5049052;28;19920;-66
2023/04/28 01:23:23;;;;;;;;;;;14.70;47.30;;;;;;5048883;28;19926;-66
2023/04/28 01:25:48;;;;;;;;;;;14.70;47.30;;;;;;5049780;28;19925;-67
2023/04/28 01:28:14;;;;;;;;;;;14.70;47.30;;;;;;5049014;28;19975;-67
2023/04/28 01:30:39;;;;;;;;;;;14.70;47.30;;;;;;5054056;28;19927;-67
2023/04/28 01:33:05;;;;;;;;;;;14.70;47.30;;;;;;5068848;28;20023;-67
2023/04/28 01:35:30;;;;;;;;;;;14.70;47.30;;;;;;5049232;28;19966;-67
2023/04/28 01:37:56;;;;;;;;;;;14.60;47.20;;;;;;5049999;28;19921;-67
2023/04/28 01:40:22;;;;;;;;;;;14.70;47.30;;;;;;5048198;28;19921;-66
2023/04/28 01:42:47;;;;;;;;;;;14.60;47.20;;;;;;5049000;28;19974;-66
2023/04/28 01:45:12;;;;;;;;;;;14.70;47.30;;;;;;5049548;28;20004;-66
2023/04/28 01:47:38;;;;;;;;;;;14.60;47.20;;;;;;5049181;28;19928;-67
2023/04/28 01:50:04;;;;;;;;;;;14.60;47.20;;;;;;5068145;28;20295;-67
2023/04/28 01:52:29;;;;;;;;;;;14.60;47.20;;;;;;5065961;28;19924;-67
2023/04/28 01:54:55;;;;;;;;;;;14.60;47.20;;;;;;5052187;28;19929;-67
2023/04/28 01:57:21;;;;;;;;;;;14.60;47.20;;;;;;5065723;28;19999;-67
2023/04/28 01:59:46;;;;;;;;;;;14.60;47.20;;;;;;5066417;28;20535;-67
2023/04/28 02:02:12;;;;;;;;;;;14.60;47.20;;;;;;5068190;28;19920;-67
2023/04/28 02:04:38;;;;;;;;;;;14.60;47.20;;;;;;5050399;28;19925;-67
2023/04/28 02:07:03;;;;;;;;;;;14.60;47.20;;;;;;5066294;28;19947;-67
2023/04/28 02:09:29;;;;;;;;;;;14.60;47.20;;;;;;5066762;28;19920;-67
2023/04/28 02:11:54;;;;;;;;;;;14.60;47.20;;;;;;5048743;28;20019;-67
2023/04/28 02:14:20;;;;;;;;;;;14.60;47.20;;;;;;5050847;28;19967;-67
2023/04/28 02:16:45;;;;;;;;;;;14.60;47.20;;;;;;5048222;28;19979;-67
2023/04/28 02:19:11;;;;;;;;;;;14.60;47.20;;;;;;5048941;28;19921;-67
2023/04/28 02:21:36;;;;;;;;;;;14.60;47.20;;;;;;5065722;28;19925;-67
2023/04/28 02:24:02;;;;;;;;;;;14.60;47.10;;;;;;5047795;28;19930;-67
2023/04/28 02:26:27;;;;;;;;;;;14.50;47.10;;;;;;5048391;28;19920;-67
2023/04/28 02:28:53;;;;;;;;;;;14.60;47.10;;;;;;5066448;28;19931;-66
2023/04/28 02:31:19;;;;;;;;;;;14.50;47.10;;;;;;5049854;28;19989;-67
2023/04/28 02:33:44;;;;;;;;;;;14.50;47.10;;;;;;5048308;28;20023;-67
2023/04/28 02:36:10;;;;;;;;;;;14.50;47.10;;;;;;5047761;28;19925;-67
2023/04/28 02:38:35;;;;;;;;;;;14.50;47.10;;;;;;5053139;28;19973;-66
2023/04/28 02:41:03;;;;;;;;;;;14.50;47.10;;;;;;5063786;28;20276;-66
2023/04/28 02:43:29;;;;;;;;;;;14.50;47.10;;;;;;5065848;28;19955;-67
2023/04/28 02:45:55;;;;;;;;;;;14.50;47.10;;;;;;5064367;28;20277;-67
2023/04/28 02:48:21;;;;;;;;;;;14.50;47.90;;;;;;5067168;28;19925;-67
2023/04/28 02:50:46;;;;;;;;;;;14.50;47.10;;;;;;5063787;28;20314;-67
2023/04/28 02:53:12;;;;;;;;;;;14.50;47.20;;;;;;5061621;28;19920;-67
2023/04/28 02:55:37;;;;;;;;;;;14.50;47.20;;;;;;5049586;28;20338;-67
2023/04/28 02:58:03;;;;;;;;;;;14.50;47.10;;;;;;5064041;28;19967;-67
2023/04/28 03:00:29;;;;;;;;;;;14.40;47.10;;;;;;5048048;28;20020;-67
2023/04/28 03:02:54;;;;;;;;;;;14.40;47.20;;;;;;5067163;28;20387;-67
2023/04/28 03:05:20;;;;;;;;;;;14.40;47.10;;;;;;5065318;28;20435;-67
2023/04/28 03:07:45;;;;;;;;;;;14.40;47.10;;;;;;5047203;28;19924;-67
2023/04/28 03:10:11;;;;;;;;;;;14.40;47.10;;;;;;5046548;28;20039;-67
2023/04/28 03:12:36;;;;;;;;;;;14.40;47.20;;;;;;5048489;28;19984;-67
2023/04/28 03:15:02;;;;;;;;;;;14.40;47.10;;;;;;5047871;28;20012;-67
2023/04/28 03:17:27;;;;;;;;;;;14.40;47.20;;;;;;5048434;28;19921;-66
2023/04/28 03:19:53;;;;;;;;;;;14.40;47.20;;;;;;5048208;28;19924;-67
2023/04/28 03:22:18;;;;;;;;;;;14.40;47.20;;;;;;5045576;28;20299;-67
2023/04/28 03:24:44;;;;;;;;;;;14.40;47.20;;;;;;5047443;28;19925;-67
2023/04/28 03:27:10;;;;;;;;;;;14.40;47.20;;;;;;5048028;28;20265;-67
2023/04/28 03:29:35;;;;;;;;;;;14.40;47.20;;;;;;5048355;28;20388;-67
2023/04/28 03:32:01;;;;;;;;;;;14.40;47.20;;;;;;5044940;28;19921;-66
2023/04/28 03:34:26;;;;;;;;;;;14.40;47.20;;;;;;5066471;28;19920;-67
2023/04/28 03:36:52;;;;;;;;;;;14.40;47.20;;;;;;5048152;28;19987;-67
2023/04/28 03:39:17;;;;;;;;;;;14.30;47.10;;;;;;5047359;28;19924;-67
2023/04/28 03:41:43;;;;;;;;;;;14.40;47.10;;;;;;5064328;28;19921;-66
2023/04/28 03:44:08;;;;;;;;;;;14.30;47.10;;;;;;5046746;28;20156;-67
2023/04/28 03:46:34;;;;;;;;;;;14.40;47.10;;;;;;5052790;28;19924;-66
2023/04/28 03:49:01;;;;;;;;;;;14.40;47.20;;;;;;5046869;28;20045;-66
2023/04/28 03:51:27;;;;;;;;;;;14.30;47.10;;;;;;5063505;28;19979;-66
2023/04/28 03:53:53;;;;;;;;;;;14.30;47.10;;;;;;5047945;28;20334;-67
2023/04/28 03:56:19;;;;;;;;;;;14.40;47.10;;;;;;5047609;28;19925;-66
2023/04/28 03:58:45;;;;;;;;;;;14.30;47.10;;;;;;5047857;28;19971;-67
2023/04/28 04:01:10;;;;;;;;;;;14.40;47.10;;;;;;5050424;28;19920;-67
2023/04/28 04:03:36;;;;;;;;;;;14.30;47.80;;;;;;5048154;28;19920;-67
2023/04/28 04:06:01;;;;;;;;;;;14.30;47.10;;;;;;5064660;28;19928;-67
2023/04/28 04:08:27;;;;;;;;;;;14.30;47.10;;;;;;5065097;28;19920;-67
2023/04/28 04:10:53;;;;;;;;;;;14.30;47.10;;;;;;5068712;28;19970;-66
2023/04/28 04:13:19;;;;;;;;;;;14.30;47.10;;;;;;5068698;28;19921;-67
2023/04/28 04:15:45;;;;;;;;;;;14.30;47.10;;;;;;5049999;28;19966;-67
2023/04/28 04:18:11;;;;;;;;;;;14.30;47.20;;;;;;5051189;28;19921;-67
2023/04/28 04:20:36;;;;;;;;;;;14.30;47.20;;;;;;5069039;28;20003;-67
2023/04/28 04:23:02;;;;;;;;;;;14.30;47.10;;;;;;5047826;28;19921;-67
2023/04/28 04:25:28;;;;;;;;;;;14.30;47.10;;;;;;5055184;28;19924;-66
2023/04/28 04:27:53;;;;;;;;;;;14.30;47.10;;;;;;5051251;28;19929;-67
2023/04/28 04:30:19;;;;;;;;;;;14.30;47.20;;;;;;5051590;28;19932;-67
2023/04/28 04:32:44;;;;;;;;;;;14.30;47.10;;;;;;5052658;28;19924;-66
2023/04/28 04:35:10;;;;;;;;;;;14.30;47.20;;;;;;5050482;28;19970;-66
2023/04/28 04:37:35;;;;;;;;;;;14.20;47.10;;;;;;5051982;28;19921;-67
2023/04/28 04:40:01;;;;;;;;;;;14.20;47.10;;;;;;5048767;28;19920;-66
2023/04/28 04:42:27;;;;;;;;;;;14.20;47.10;;;;;;5065894;28;19928;-66
2023/04/28 04:44:52;;;;;;;;;;;14.30;47.20;;;;;;5050978;28;19920;-66
2023/04/28 04:47:18;;;;;;;;;;;14.20;47.20;;;;;;5069593;28;20322;-66
2023/04/28 04:49:44;;;;;;;;;;;14.20;47.10;;;;;;5067728;28;19921;-66
2023/04/28 04:52:09;;;;;;;;;;;14.20;47.10;;;;;;5051074;28;19942;-67
2023/04/28 04:54:35;;;;;;;;;;;14.20;47.20;;;;;;5050192;28;20402;-67
2023/04/28 04:57:01;;;;;;;;;;;14.20;47.20;;;;;;5051485;28;19925;-67
2023/04/28 04:59:27;;;;;;;;;;;14.20;47.10;;;;;;5050867;28;20396;-66
2023/04/28 05:01:52;;;;;;;;;;;14.20;47.20;;;;;;5068469;28;19921;-67
2023/04/28 05:04:18;;;;;;;;;;;14.20;47.10;;;;;;5049957;28;20012;-67
2023/04/28 05:06:43;;;;;;;;;;;14.20;47.20;;;;;;5067936;28;19929;-67
2023/04/28 05:09:09;;;;;;;;;;;14.20;47.20;;;;;;5069885;28;19932;-67
2023/04/28 05:11:34;;;;;;;;;;;14.20;47.20;;;;;;5068640;28;19970;-67
2023/04/28 05:14:00;;;;;;;;;;;14.20;47.20;;;;;;5050150;28;20377;-67
2023/04/28 05:16:28;;;;;;;;;;;14.20;47.90;;;;;;5050140;28;19966;-67
2023/04/28 05:18:54;;;;;;;;;;;14.20;47.20;;;;;;5052232;28;19920;-67
2023/04/28 05:21:20;;;;;;;;;;;14.10;47.10;;;;;;5047576;28;19964;-67
2023/04/28 05:23:45;;;;;;;;;;;14.20;47.20;;;;;;5048554;28;19924;-67
2023/04/28 05:26:11;;;;;;;;;;;14.20;47.30;;;;;;5050888;28;20003;-67
2023/04/28 05:28:38;;;;;;;;;;;14.20;47.30;;;;;;5067429;28;19924;-67
2023/04/28 05:31:03;;;;;;;;;;;14.20;47.30;;;;;;5065858;28;19921;-69
2023/04/28 05:33:32;;;;;;;;;;;14.20;47.30;;;;;;5049414;28;19927;-69
2023/04/28 05:35:58;;;;;;;;;;;14.20;47.30;;;;;;5050128;28;20333;-67
2023/04/28 05:38:23;;;;;;;;;;;14.20;47.30;;;;;;5048825;28;19946;-67
2023/04/28 05:40:53;;;;;;;;;;;14.20;47.30;;;;;;5064327;28;19931;-67
2023/04/28 05:43:18;;;;;;;;;;;14.20;47.30;;;;;;5066500;28;19954;-67
2023/04/28 05:45:44;;;;;;;;;;;14.10;47.40;;;;;;5050255;28;20403;-66
2023/04/28 05:48:10;;;;;;;;;;;14.20;47.40;;;;;;5049671;28;19939;-66
2023/04/28 05:50:35;;;;;;;;;;;14.20;47.40;;;;;;5049174;28;19921;-67
2023/04/28 05:53:01;;;;;;;;;;;14.20;47.40;;;;;;5066015;28;19920;-67
2023/04/28 05:55:26;;;;;;;;;;;14.20;47.50;;;;;;5066670;28;19921;-68
2023/04/28 05:57:52;;;;;;;;;;;14.10;47.40;;;;;;5049322;28;20019;-66
2023/04/28 06:00:18;;;;;;;;;;;14.20;47.50;;;;;;5067870;28;19990;-69
2023/04/28 06:02:43;;;;;;;;;;;14.10;47.40;;;;;;5067191;28;19920;-66
2023/04/28 06:05:09;;;;;;;;;;;14.10;47.40;;;;;;5048464;28;19944;-67
2023/04/28 06:07:35;;;;;;;;;;;14.10;47.40;;;;;;5048353;28;20276;-68
2023/04/28 06:10:01;;;;;;;;;;;14.20;47.50;;;;;;5050161;28;19947;-67
2023/04/28 06:12:26;;;;;;;;;;;14.10;47.40;;;;;;5066507;28;19952;-68
2023/04/28 06:14:54;;;;;;;;;;;14.20;47.50;;;;;;5063902;28;19927;-67
2023/04/28 06:17:19;;;;;;;;;;;14.10;47.40;;;;;;5062940;28;20453;-68
2023/04/28 06:19:45;;;;;;;;;;;14.10;47.40;;;;;;5048395;28;20151;-67
2023/04/28 06:22:11;;;;;;;;;;;14.10;47.40;;;;;;5046442;28;20308;-67
2023/04/28 06:24:37;;;;;;;;;;;14.10;47.40;;;;;;5066725;28;19921;-67
2023/04/28 06:27:02;;;;;;;;;;;14.10;47.40;;;;;;5065832;28;19966;-67
2023/04/28 06:29:28;;;;;;;;;;;14.10;47.40;;;;;;5049717;28;19925;-68
2023/04/28 06:31:56;;;;;;;;;;;14.10;47.40;;;;;;5065807;28;19921;-66
2023/04/28 06:34:26;;;;;;;;;;;14.10;47.40;;;;;;5061023;28;19920;-67
2023/04/28 06:36:51;;;;;;;;;;;14.10;47.50;;;;;;5047499;28;19924;-67
2023/04/28 06:39:17;;;;;;;;;;;14.10;47.40;;;;;;5051617;28;19951;-66
2023/04/28 06:41:43;;;;;;;;;;;14.10;47.50;;;;;;5047695;28;20369;-68
2023/04/28 06:44:09;;;;;;;;;;;14.10;47.40;;;;;;5046423;28;19920;-66
2023/04/28 06:46:35;;;;;;;;;;;14.10;47.50;;;;;;5049814;28;19924;-67
2023/04/28 06:49:01;;;;;;;;;;;14.20;47.50;;;;;;5063270;28;19925;-67
2023/04/28 06:51:27;;;;;;;;;;;14.10;47.50;;;;;;5063429;28;19974;-66
2023/04/28 06:53:53;;;;;;;;;;;14.10;47.50;;;;;;5049188;28;19950;-66
2023/04/28 06:56:18;;;;;;;;;;;14.10;47.50;;;;;;5044412;28;19921;-66
2023/04/28 06:58:44;;;;;;;;;;;14.10;47.50;;;;;;5064423;28;19920;-66
2023/04/28 07:01:10;;;;;;;;;;;14.10;47.50;;;;;;5048676;28;19970;-67
2023/04/28 07:03:35;;;;;;;;;;;14.10;47.60;;;;;;5048308;28;19921;-67
2023/04/28 07:06:02;;;;;;;;;;;14.10;47.60;;;;;;5065847;28;19927;-66
2023/04/28 07:08:29;;;;;;;;;;;14.10;47.60;;;;;;5047168;28;19924;-68
2023/04/28 07:10:55;;;;;;;;;;;14.10;47.70;;;;;;5048443;28;19940;-67
2023/04/28 07:13:20;;;;;;;;;;;14.10;47.70;;;;;;5047922;28;19975;-66
2023/04/28 07:15:46;;;;;;;;;;;14.10;47.70;;;;;;5047498;28;19970;-66
2023/04/28 07:18:12;;;;;;;;;;;14.10;47.70;;;;;;5066865;28;19927;-66
2023/04/28 07:20:37;;;;;;;;;;;14.10;47.80;;;;;;5063733;28;19928;-66
2023/04/28 07:23:03;;;;;;;;;;;14.10;47.80;;;;;;5048095;28;19920;-69
2023/04/28 07:25:28;;;;;;;;;;;14.10;47.80;;;;;;5065566;28;20395;-66
2023/04/28 07:27:54;;;;;;;;;;;14.10;47.80;;;;;;5064618;28;20122;-67
2023/04/28 07:30:20;;;;;;;;;;;14.10;47.90;;;;;;5048228;28;20406;-69
2023/04/28 07:32:45;;;;;;;;;;;14.00;47.80;;;;;;5048285;28;20059;-66
2023/04/28 07:35:11;;;;;;;;;;;14.10;47.90;;;;;;5047046;28;19924;-66
2023/04/28 07:37:36;;;;;;;;;;;14.10;47.90;;;;;;5046824;28;19921;-67
2023/04/28 07:40:02;;;;;;;;;;;14.10;47.90;;;;;;5046667;28;19927;-68
2023/04/28 07:42:27;;;;;;;;;;;14.10;48.00;;;;;;5065329;28;20009;-66
2023/04/28 07:44:53;;;;;;;;;;;14.10;48.00;;;;;;5050161;28;19920;-66
2023/04/28 07:47:18;;;;;;;;;;;14.10;48.10;;;;;;5052195;28;20344;-66
2023/04/28 07:49:44;;;;;;;;;;;14.10;48.10;;;;;;5069267;28;20346;-67
2023/04/28 07:52:10;;;;;;;;;;;14.10;48.10;;;;;;5051161;28;20015;-66
2023/04/28 07:54:35;;;;;;;;;;;14.10;48.10;;;;;;5070485;28;19920;-66
2023/04/28 07:57:04;;;;;;;;;;;14.20;48.20;;;;;;5051835;28;19924;-66
2023/04/28 07:59:31;;;;;;;;;;;14.10;48.10;;;;;;5065620;28;19928;-66
2023/04/28 08:01:57;;;;;;;;;;;14.10;48.20;;;;;;5065648;28;20399;-66
2023/04/28 08:04:22;;;;;;;;;;;14.20;48.90;;;;;;5052854;28;19921;-67
2023/04/28 08:06:47;;;;;;;;;;;14.10;48.20;;;;;;5069619;28;20011;-66
2023/04/28 08:09:13;;;;;;;;;;;14.20;48.20;;;;;;5068248;28;19925;-66
2023/04/28 08:11:38;;;;;;;;;;;14.20;48.20;;;;;;5051796;28;19920;-69
2023/04/28 08:14:04;;;;;;;;;;;14.20;48.20;;;;;;5052493;28;19925;-67
2023/04/28 08:16:30;;;;;;;;;;;14.10;48.20;;;;;;5050651;28;20299;-68
2023/04/28 08:18:55;;;;;;;;;;;14.20;48.20;;;;;;5067961;28;19928;-66
2023/04/28 08:21:21;;;;;;;;;;;14.20;48.20;;;;;;5071420;28;19966;-69
2023/04/28 08:23:46;;;;;;;;;;;14.10;48.20;;;;;;5049355;28;20352;-66
2023/04/28 08:26:12;;;;;;;;;;;14.20;48.20;;;;;;5069127;28;19956;-67
2023/04/28 08:28:38;;;;;;;;;;;14.20;48.30;;;;;;5051119;28;19957;-68
2023/04/28 08:31:05;;;;;;;;;;;14.20;48.30;;;;;;5068370;28;19921;-69
2023/04/28 08:33:30;;;;;;;;;;;14.20;48.30;;;;;;5050277;28;19999;-68
2023/04/28 08:35:56;;;;;;;;;;;14.20;48.20;;;;;;5051386;28;20291;-66
2023/04/28 08:38:23;;;;;;;;;;;14.20;48.10;;;;;;5050792;28;19955;-67
2023/04/28 08:40:51;;;;;;;;;;;14.20;48.10;;;;;;5047678;28;19971;-68
2023/04/28 08:43:17;;;;;;;;;;;14.20;48.10;;;;;;5051445;28;19920;-68
2023/04/28 08:45:44;;;;;;;;;;;14.30;48.20;;;;;;5053518;28;19978;-67
2023/04/28 08:48:18;;;;;;;;;;;14.20;48.10;;;;;;5051187;28;20194;-69
2023/04/28 08:50:47;;;;;;;;;;;14.30;48.20;;;;;;5050502;28;19972;-66
2023/04/28 08:53:13;;;;;;;;;;;14.30;48.20;;;;;;5050041;28;20295;-67
2023/04/28 08:55:39;;;;;;;;;;;14.30;48.30;;;;;;5050756;28;19921;-66
2023/04/28 08:58:04;;;;;;;;;;;14.30;48.40;;;;;;5051698;28;20372;-66
2023/04/28 09:00:30;;;;;;;;;;;14.30;48.50;;;;;;5049930;28;20422;-67
2023/04/28 09:02:55;;;;;;;;;;;14.30;48.40;;;;;;5067824;28;19925;-67
2023/04/28 09:05:21;;;;;;;;;;;14.30;49.20;;;;;;5068981;28;19920;-68
2023/04/28 09:07:47;;;;;;;;;;;14.30;48.40;;;;;;5067908;28;19932;-68
2023/04/28 09:12:58;;;;;;;;;;;14.30;48.50;;;;;;5075899;28;20500;-67
2023/04/28 09:15:24;;;;;;;;;;;14.30;48.40;;;;;;5060019;28;19925;-67
2023/04/28 09:17:50;;;;;;;;;;;14.40;48.50;;;;;;5061337;28;19968;-66
2023/04/28 09:20:20;;;;;;;;;;;14.30;48.50;;;;;;5063377;28;19928;-66
2023/04/28 09:22:45;;;;;;;;;;;14.40;48.60;;;;;;5063864;28;19921;-67
2023/04/28 09:25:11;;;;;;;;;;;14.40;48.60;;;;;;5062707;28;19928;-67
2023/04/28 09:27:36;;;;;;;;;;;14.40;48.60;;;;;;5060885;28;19920;-66
2023/04/28 09:30:03;;;;;;;;;;;14.30;48.60;;;;;;5061527;28;19925;-69
2023/04/28 09:32:29;;;;;;;;;;;14.40;48.80;;;;;;5062323;28;19972;-66
2023/04/28 09:34:55;;;;;;;;;;;14.40;48.80;;;;;;5062768;28;19921;-68
2023/04/28 09:37:22;;;;;;;;;;;14.40;48.80;;;;;;5062680;28;19994;-66
2023/04/28 09:39:49;;;;;;;;;;;14.40;49.00;;;;;;5061843;28;19991;-66
2023/04/28 09:42:34;;;;;;;;;;;14.40;48.90;;;;;;5062996;28;19920;-66
2023/04/28 09:45:01;;;;;;;;;;;14.40;49.10;;;;;;5058957;28;20038;-68
2023/04/28 09:47:27;;;;;;;;;;;14.40;49.10;;;;;;5062442;28;19920;-66
2023/04/28 09:49:54;;;;;;;;;;;14.40;49.10;;;;;;5061829;28;19928;-66
2023/04/28 09:52:21;;;;;;;;;;;14.40;49.20;;;;;;5076891;28;19932;-66
2023/04/28 09:54:48;;;;;;;;;;;14.40;49.20;;;;;;5057705;28;19921;-67
2023/04/28 09:57:14;;;;;;;;;;;14.40;49.00;;;;;;5063160;28;20522;-68
2023/04/28 09:59:41;;;;;;;;;;;14.50;48.90;;;;;;5060576;28;20305;-66
2023/04/28 10:02:07;;;;;;;;;;;14.50;48.80;;;;;;5062213;28;19921;-66
2023/04/28 10:04:33;;;;;;;;;;;14.50;48.90;;;;;;5060688;28;19928;-68
2023/04/28 10:06:59;;;;;;;;;;;14.50;48.90;;;;;;5063022;28;19925;-68
2023/04/28 10:09:27;;;;;;;;;;;14.50;48.90;;;;;;5061891;28;19924;-66
2023/04/28 10:11:53;;;;;;;;;;;14.50;48.90;;;;;;5059310;28;19925;-68
2023/04/28 10:14:19;;;;;;;;;;;14.50;49.00;;;;;;5060028;28;20436;-66
2023/04/28 10:16:44;;;;;;;;;;;14.50;49.00;;;;;;5060957;28;19921;-67
2023/04/28 10:19:11;;;;;;;;;;;14.50;49.30;;;;;;5060838;28;19925;-67
2023/04/28 10:21:40;;;;;;;;;;;14.60;49.80;;;;;;5060785;28;20291;-69
2023/04/28 10:24:11;;;;;;;;;;;14.50;50.10;;;;;;5046790;28;20015;-66
2023/04/28 10:26:56;;;;;;;;;;;14.60;50.00;;;;;;5048012;28;19943;-69
2023/04/28 10:29:25;;;;;;;;;;;14.60;50.30;;;;;;5046765;28;19925;-69
2023/04/28 10:32:11;;;;;;;;;;;14.60;50.40;;;;;;5045713;28;20288;-66
2023/04/28 10:34:36;;;;;;;;;;;14.60;50.20;;;;;;5059953;28;19947;-67
2023/04/28 10:37:02;;;;;;;;;;;14.60;50.40;;;;;;5047364;28;19925;-69
2023/04/28 10:39:28;;;;;;;;;;;14.60;50.00;;;;;;5047566;28;20453;-68
2023/04/28 10:41:53;;;;;;;;;;;14.60;50.00;;;;;;5047089;28;19920;-66
2023/04/28 10:47:14;;;;;;;;;;;14.60;50.00;;;;;;5095658;27;19916;-66
2023/04/28 10:55:36;;;;;;;;;;;14.60;50.10;;;;;;5078781;28;19948;-68
2023/04/28 10:58:21;;;;;;;;;;;14.60;50.30;;;;;;5044722;28;20064;-69
2023/04/28 11:00:47;;;;;;;;;;;14.60;50.30;;;;;;5050423;28;19925;-68
2023/04/28 11:03:32;;;;;;;;;;;14.60;50.40;;;;;;5045262;28;19972;-68
2023/04/28 11:06:25;;;;;;;;;;;14.50;50.30;;;;;;5044539;28;19925;-67
2023/04/28 11:08:52;;;;;;;;;;;14.60;50.50;;;;;;5046194;28;19921;-69
2023/04/28 11:11:18;;;;;;;;;;;14.60;50.50;;;;;;5061099;28;19967;-68
2023/04/28 11:13:45;;;;;;;;;;;14.60;50.60;;;;;;5061300;28;19925;-66
2023/04/28 11:16:19;;;;;;;;;;;14.60;50.60;;;;;;5047047;28;19921;-67
2023/04/28 11:19:04;;;;;;;;;;;14.60;50.70;;;;;;5044459;28;19928;-66
2023/04/28 11:21:30;;;;;;;;;;;14.60;50.80;;;;;;5039386;28;19922;-66
2023/04/28 11:23:56;;;;;;;;;;;14.60;50.90;;;;;;5047452;28;19928;-69
2023/04/28 11:26:22;;;;;;;;;;;14.70;50.90;;;;;;5046000;28;20479;-67
2023/04/28 11:28:49;;;;;;;;;;;14.70;51.00;;;;;;5044611;28;19925;-68
2023/04/28 11:31:18;;;;;;;;;;;14.60;50.80;;;;;;5045387;28;20403;-69
2023/04/28 11:33:45;;;;;;;;;;;14.60;50.90;;;;;;5049484;28;19925;-66
2023/04/28 11:36:21;;;;;;;;;;;14.60;51.00;;;;;;5046804;28;20288;-68
2023/04/28 11:38:47;;;;;;;;;;;14.60;51.00;;;;;;5052198;28;19921;-66
2023/04/28 11:41:13;;;;;;;;;;;14.60;51.00;;;;;;5056981;28;19921;-69
2023/04/28 11:43:38;;;;;;;;;;;14.60;51.10;;;;;;5044658;28;20288;-66
2023/04/28 11:46:06;;;;;;;;;;;14.60;51.20;;;;;;5047104;28;19925;-66
2023/04/28 11:48:31;;;;;;;;;;;14.60;51.20;;;;;;5046552;28;19921;-66
2023/04/28 11:50:57;;;;;;;;;;;14.60;51.40;;;;;;5040818;28;19973;-68
2023/04/28 11:53:42;;;;;;;;;;;14.60;51.30;;;;;;5051759;28;19925;-67
2023/04/28 11:56:08;;;;;;;;;;;14.60;51.30;;;;;;5035568;28;20296;-66
2023/04/28 11:58:34;;;;;;;;;;;14.60;51.40;;;;;;5065468;28;19921;-67
2023/04/28 12:01:14;;;;;;;;;;;14.70;51.50;;;;;;5050020;28;19921;-67
2023/04/28 12:03:41;;;;;;;;;;;14.70;51.50;;;;;;5050287;28;19974;-69
2023/04/28 12:06:07;;;;;;;;;;;14.70;51.40;;;;;;5055218;28;20008;-69
2023/04/28 12:08:32;;;;;;;;;;;14.60;51.30;;;;;;5033481;28;20019;-67
2023/04/28 12:11:13;;;;;;;;;;;14.70;51.40;;;;;;5036054;28;19928;-69
2023/04/28 12:13:40;;;;;;;;;;;14.70;51.40;;;;;;5048667;28;19928;-69
2023/04/28 12:16:06;;;;;;;;;;;14.70;51.40;;;;;;5035543;28;19920;-68
2023/04/28 12:18:32;;;;;;;;;;;14.70;51.50;;;;;;5042656;28;19925;-70
2023/04/28 12:20:59;;;;;;;;;;;14.70;51.50;;;;;;5037798;28;20308;-68
2023/04/28 12:23:33;;;;;;;;;;;14.70;51.50;;;;;;5032632;28;20395;-67
2023/04/28 12:25:59;;;;;;;;;;;14.70;51.60;;;;;;5052872;28;20399;-69
2023/04/28 12:28:35;;;;;;;;;;;14.70;51.60;;;;;;5033399;28;19921;-67
2023/04/28 12:31:05;;;;;;;;;;;14.70;51.60;;;;;;5032279;28;19921;-67
2023/04/28 12:33:36;;;;;;;;;;;14.70;51.60;;;;;;5051757;28;20257;-67
2023/04/28 12:36:02;;;;;;;;;;;14.70;51.70;;;;;;5053656;28;19921;-67
2023/04/28 12:38:27;;;;;;;;;;;14.70;51.80;;;;;;5051760;28;20281;-70
2023/04/28 12:40:53;;;;;;;;;;;14.60;51.60;;;;;;5052117;28;20084;-68
2023/04/28 12:43:21;;;;;;;;;;;14.70;51.80;;;;;;5051834;28;19925;-67
2023/04/28 12:45:48;;;;;;;;;;;14.70;52.00;;;;;;5031938;28;20514;-67
2023/04/28 12:48:13;;;;;;;;;;;14.70;51.90;;;;;;5033087;28;19929;-67
2023/04/28 12:50:39;;;;;;;;;;;14.70;52.10;;;;;;5031068;28;19921;-68
2023/04/28 12:53:05;;;;;;;;;;;14.70;52.00;;;;;;5040338;28;19932;-68
2023/04/28 12:55:30;;;;;;;;;;;14.70;52.30;;;;;;5037853;28;19924;-67
2023/04/28 12:57:56;;;;;;;;;;;14.80;52.20;;;;;;5039266;28;20403;-69
2023/04/28 13:00:23;;;;;;;;;;;14.70;52.40;;;;;;5034391;28;19925;-69
2023/04/28 13:02:49;;;;;;;;;;;14.70;52.30;;;;;;5042530;28;20338;-69
2023/04/28 13:05:15;;;;;;;;;;;14.70;52.30;;;;;;5047760;28;19925;-67
2023/04/28 13:07:40;;;;;;;;;;;14.70;52.50;;;;;;5033202;28;19928;-70
2023/04/28 13:10:06;;;;;;;;;;;14.70;52.40;;;;;;5052389;28;19920;-70
2023/04/28 13:12:32;;;;;;;;;;;14.70;52.30;;;;;;5033917;28;19971;-69
2023/04/28 13:15:00;;;;;;;;;;;14.70;52.50;;;;;;5049590;28;19928;-68
2023/04/28 13:17:26;;;;;;;;;;;14.70;52.50;;;;;;5032086;28;19921;-68
2023/04/28 13:19:52;;;;;;;;;;;14.70;52.60;;;;;;5034977;28;19928;-68
2023/04/28 13:22:18;;;;;;;;;;;14.70;52.60;;;;;;5028063;28;20007;-68
2023/04/28 13:24:44;;;;;;;;;;;14.70;52.60;;;;;;5032038;28;20351;-68
2023/04/28 13:27:09;;;;;;;;;;;14.80;52.60;;;;;;5037173;28;19924;-69
2023/04/28 13:29:35;;;;;;;;;;;14.70;52.60;;;;;;5036738;28;19927;-70
2023/04/28 13:32:01;;;;;;;;;;;14.70;53.00;;;;;;5033648;28;19928;-68
2023/04/28 13:34:26;;;;;;;;;;;14.70;52.90;;;;;;5031119;28;19924;-69
2023/04/28 13:36:54;;;;;;;;;;;14.70;52.90;;;;;;5031738;28;19921;-68
2023/04/28 13:39:20;;;;;;;;;;;14.70;53.00;;;;;;5021467;28;19921;-69
2023/04/28 13:41:47;;;;;;;;;;;14.70;53.10;;;;;;5027837;28;19921;-68
2023/04/28 13:44:13;;;;;;;;;;;14.70;53.40;;;;;;5033980;28;20473;-68
2023/04/28 13:46:38;;;;;;;;;;;14.80;53.20;;;;;;5032560;28;19920;-68
2023/04/28 13:49:04;;;;;;;;;;;14.80;53.20;;;;;;5049365;28;19929;-67
2023/04/28 13:51:31;;;;;;;;;;;14.80;53.20;;;;;;5045009;28;19928;-69
2023/04/28 13:53:57;;;;;;;;;;;14.80;53.20;;;;;;5024788;28;19947;-68
2023/04/28 13:56:23;;;;;;;;;;;14.70;53.10;;;;;;5038866;28;20412;-68
2023/04/28 13:58:48;;;;;;;;;;;14.80;53.30;;;;;;5048948;28;20388;-69
2023/04/28 14:01:14;;;;;;;;;;;14.80;53.30;;;;;;5032506;28;19921;-68
2023/04/28 14:03:40;;;;;;;;;;;14.80;53.30;;;;;;5021653;28;19969;-69
2023/04/28 14:06:05;;;;;;;;;;;14.80;53.50;;;;;;5050048;28;19921;-68
2023/04/28 14:08:31;;;;;;;;;;;14.80;53.40;;;;;;5028465;28;19975;-68
2023/04/28 14:10:57;;;;;;;;;;;14.80;53.30;;;;;;5033597;28;19921;-68
2023/04/28 14:13:24;;;;;;;;;;;14.80;53.40;;;;;;5033155;28;19928;-68
2023/04/28 14:15:51;;;;;;;;;;;14.80;53.50;;;;;;5031619;28;19990;-68
2023/04/28 14:18:17;;;;;;;;;;;14.80;53.50;;;;;;5031051;28;20450;-69
2023/04/28 14:20:42;;;;;;;;;;;14.80;53.70;;;;;;5030689;28;19924;-69
2023/04/28 14:23:08;;;;;;;;;;;14.80;53.70;;;;;;5034933;28;19979;-69